Time;durP1;ratioP1;P1;durP2;ratioP2;P2;SDS_P1;SDS_P2;PMS_P1;PMS_P2;Temp;Humidity;BMP_temperature;BMP_pressure;BME280_temperature;BME280_humidity;BME280_pressure;Samples;Min_cycle;Max_cycle;Signal;HPM_P1;HPM_P2
2022/05/21 00:00:34;;;;;;;8.63;3.22;;;20.90;91.70;;;;;;10127481;29;20037;-91
2022/05/21 00:05:36;;;;;;;6.68;2.80;;;20.70;92.40;;;;;;10076618;29;20040;-88
2022/05/21 00:10:41;;;;;;;6.53;2.97;;;20.60;93.10;;;;;;10076569;29;20037;-90
2022/05/21 00:15:41;;;;;;;6.78;3.22;;;20.40;95.10;;;;;;10075884;29;20025;-90
2022/05/21 00:20:48;;;;;;;10.43;3.13;;;20.20;96.80;;;;;;10075806;29;20040;-90
2022/05/21 00:25:56;;;;;;;5.07;2.67;;;19.90;99.30;;;;;;10076522;29;20033;-89
2022/05/21 00:31:01;;;;;;;6.72;2.63;;;19.70;99.90;;;;;;10076934;29;20045;-88
2022/05/21 00:36:05;;;;;;;4.22;2.60;;;19.60;99.90;;;;;;10075691;29;20053;-89
2022/05/21 00:41:08;;;;;;;5.78;3.28;;;19.50;99.90;;;;;;10092379;29;20033;-90
2022/05/21 00:46:21;;;;;;;6.75;2.70;;;19.30;99.90;;;;;;10113189;29;20029;-90
2022/05/21 00:51:26;;;;;;;7.95;3.67;;;19.10;99.90;;;;;;10113988;29;20493;-89
2022/05/21 00:56:35;;;;;;;9.05;3.90;;;19.00;99.90;;;;;;10098596;29;20186;-89
2022/05/21 01:01:41;;;;;;;11.63;3.45;;;18.90;99.90;;;;;;10079272;29;20042;-92
2022/05/21 01:06:43;;;;;;;5.75;3.15;;;18.80;99.90;;;;;;10116560;29;20392;-91
2022/05/21 01:11:43;;;;;;;8.68;3.28;;;18.70;99.90;;;;;;10115411;29;20386;-91
2022/05/21 01:16:44;;;;;;;7.85;3.03;;;18.70;99.90;;;;;;10116317;29;20040;-91
2022/05/21 01:21:53;;;;;;;7.07;3.78;;;18.60;99.90;;;;;;10117132;29;20047;-90
2022/05/21 01:26:56;;;;;;;13.30;5.63;;;18.60;99.90;;;;;;10115386;29;20025;-89
2022/05/21 01:31:57;;;;;;;7.85;4.38;;;18.60;99.90;;;;;;10081546;29;20477;-90
2022/05/21 01:36:58;;;;;;;6.53;3.33;;;18.50;99.90;;;;;;10075736;29;20113;-90
2022/05/21 01:41:59;;;;;;;4.88;3.28;;;18.50;99.90;;;;;;10076419;29;20049;-90
2022/05/21 01:46:59;;;;;;;7.85;3.95;;;18.50;99.90;;;;;;10074352;29;20486;-90
2022/05/21 01:52:04;;;;;;;9.68;3.53;;;18.50;99.90;;;;;;10083197;29;20081;-90
2022/05/21 01:57:06;;;;;;;13.10;3.88;;;18.40;99.90;;;;;;10062538;29;20517;-89
2022/05/21 02:02:07;;;;;;;4.47;3.17;;;18.40;99.90;;;;;;10074125;29;20084;-90
2022/05/21 02:07:07;;;;;;;5.35;3.22;;;18.40;99.90;;;;;;10072736;29;20385;-90
2022/05/21 02:12:14;;;;;;;8.00;4.18;;;18.40;99.90;;;;;;10074978;29;20025;-90
2022/05/21 02:17:16;;;;;;;7.45;3.85;;;18.40;99.90;;;;;;10075818;29;20296;-91
2022/05/21 02:22:17;;;;;;;6.32;4.00;;;18.30;99.90;;;;;;10108983;29;20509;-90
2022/05/21 02:27:18;;;;;;;8.52;4.15;;;18.30;99.90;;;;;;10084927;29;20064;-89
2022/05/21 02:32:29;;;;;;;6.38;3.83;;;18.40;99.90;;;;;;10110816;29;20028;-89
2022/05/21 02:42:55;;;;;;;6.50;3.38;;;18.30;99.90;;;;;;10102906;29;20041;-90
2022/05/21 02:48:17;;;;;;;6.40;3.83;;;18.20;99.90;;;;;;10109599;29;20032;-89
2022/05/21 02:53:22;;;;;;;10.15;4.60;;;18.20;99.90;;;;;;10091292;29;20516;-89
2022/05/21 02:58:29;;;;;;;9.87;4.53;;;18.10;99.90;;;;;;10071408;29;20037;-90
2022/05/21 03:03:33;;;;;;;8.25;4.43;;;18.00;99.90;;;;;;10077262;29;20049;-91
2022/05/21 03:14:36;;;;;;;6.32;4.28;;;17.90;99.90;;;;;;10097236;29;20048;-90
2022/05/21 03:19:36;;;;;;;9.38;5.60;;;17.90;99.90;;;;;;10077474;29;20698;-88
2022/05/21 03:30:44;;;;;;;10.00;6.60;;;18.00;99.90;;;;;;10100997;29;20029;-90
2022/05/21 03:35:48;;;;;;;9.75;6.10;;;18.00;99.90;;;;;;10075812;29;20533;-88
2022/05/21 03:41:02;;;;;;;7.72;4.68;;;18.00;99.90;;;;;;10073847;29;20527;-88
2022/05/21 03:46:11;;;;;;;11.05;7.28;;;18.10;99.90;;;;;;10055117;29;20048;-90
2022/05/21 03:51:22;;;;;;;9.73;6.03;;;18.10;99.90;;;;;;10076660;29;20060;-90
2022/05/21 03:56:23;;;;;;;9.20;5.30;;;18.20;99.90;;;;;;10093605;29;20048;-91
2022/05/21 04:01:27;;;;;;;7.70;4.13;;;18.30;99.90;;;;;;10115263;29;20092;-90
2022/05/21 04:06:30;;;;;;;8.75;4.47;;;18.30;99.90;;;;;;10114134;29;20056;-90
2022/05/21 04:11:31;;;;;;;7.05;4.45;;;18.30;99.90;;;;;;10098034;29;20454;-91
2022/05/21 04:16:31;;;;;;;8.07;4.47;;;18.40;99.90;;;;;;10080024;29;20040;-87
2022/05/21 04:21:32;;;;;;;5.75;3.85;;;18.50;99.90;;;;;;10109244;29;20051;-89
2022/05/21 04:26:33;;;;;;;9.45;3.95;;;18.50;99.90;;;;;;10092532;29;20025;-91
2022/05/21 04:31:34;;;;;;;7.70;3.67;;;18.70;99.90;;;;;;10081673;29;20060;-90
2022/05/21 04:36:34;;;;;;;5.10;3.85;;;18.70;99.90;;;;;;10082649;29;20445;-91
2022/05/21 04:41:35;;;;;;;4.97;3.22;;;18.90;99.90;;;;;;10111283;29;20102;-91
2022/05/21 04:46:39;;;;;;;8.27;3.92;;;19.00;99.90;;;;;;10088270;29;20576;-93
2022/05/21 04:51:40;;;;;;;11.68;3.33;;;19.20;99.90;;;;;;10089392;29;20464;-91
2022/05/21 04:56:40;;;;;;;10.32;3.28;;;19.30;99.90;;;;;;10087511;29;20180;-89
2022/05/21 05:01:44;;;;;;;4.30;2.70;;;19.50;99.90;;;;;;10090170;29;20048;-92
2022/05/21 05:06:45;;;;;;;3.95;2.78;;;19.60;99.90;;;;;;10091396;29;20029;-93
2022/05/21 05:11:47;;;;;;;4.70;2.50;;;19.60;99.90;;;;;;10081628;29;20466;-88
2022/05/21 05:16:47;;;;;;;7.22;2.88;;;19.60;99.90;;;;;;10084705;29;20092;-91
2022/05/21 05:21:48;;;;;;;3.97;2.60;;;19.70;99.90;;;;;;10089338;29;20415;-87
2022/05/21 05:26:49;;;;;;;5.35;2.80;;;19.90;97.90;;;;;;10096003;29;20034;-84
2022/05/21 05:31:50;;;;;;;4.25;2.50;;;19.80;96.80;;;;;;10114125;29;20033;-85
2022/05/21 05:36:51;;;;;;;3.63;2.33;;;19.60;96.60;;;;;;10067663;29;20101;-86
2022/05/21 05:41:54;;;;;;;6.90;2.80;;;19.80;96.10;;;;;;10076994;29;20043;-88
2022/05/21 05:46:55;;;;;;;6.38;2.95;;;19.90;95.80;;;;;;10067143;29;20136;-86
2022/05/21 05:51:58;;;;;;;6.15;2.83;;;19.70;95.40;;;;;;10053869;29;20497;-86
2022/05/21 05:56:59;;;;;;;3.80;2.58;;;19.50;95.20;;;;;;10068172;29;20029;-84
2022/05/21 06:07:19;;;;;;;6.60;2.40;;;19.50;92.90;;;;;;10081203;29;20394;-83
2022/05/21 06:12:20;;;;;;;8.63;2.03;;;19.40;91.40;;;;;;10057623;29;20033;-84
2022/05/21 06:17:21;;;;;;;7.75;2.20;;;19.30;91.30;;;;;;10085885;29;20120;-86
2022/05/21 06:22:21;;;;;;;3.35;1.77;;;19.20;91.20;;;;;;10085719;29;20049;-83
2022/05/21 06:27:22;;;;;;;7.82;2.15;;;19.20;90.40;;;;;;10083966;29;20648;-87
2022/05/21 06:32:22;;;;;;;3.30;1.90;;;19.00;86.30;;;;;;10092151;29;20351;-86
2022/05/21 06:37:23;;;;;;;5.05;1.48;;;18.90;86.60;;;;;;10104851;29;20061;-83
2022/05/21 06:42:24;;;;;;;6.32;1.80;;;19.00;85.30;;;;;;10086866;29;20040;-85
2022/05/21 06:47:25;;;;;;;3.33;1.45;;;19.00;83.10;;;;;;10097657;29;20466;-81
2022/05/21 06:52:30;;;;;;;3.15;1.63;;;18.90;83.70;;;;;;10066335;29;20052;-85
2022/05/21 06:57:32;;;;;;;4.97;1.30;;;19.20;81.90;;;;;;10106775;29;20469;-84
2022/05/21 07:02:33;;;;;;;4.18;0.70;;;20.00;76.80;;;;;;10086163;29;20132;-84
2022/05/21 07:07:43;;;;;;;2.95;0.60;;;21.00;72.10;;;;;;10074688;29;20648;-85
2022/05/21 07:12:44;;;;;;;3.53;0.55;;;21.50;67.60;;;;;;10084881;29;20036;-84
2022/05/21 07:17:45;;;;;;;3.45;1.00;;;21.70;66.90;;;;;;10067459;29;20038;-86
2022/05/21 07:22:48;;;;;;;4.88;0.88;;;22.10;65.80;;;;;;10099062;29;20143;-83
2022/05/21 07:27:49;;;;;;;4.30;0.55;;;22.10;63.20;;;;;;10074645;29;20415;-87
2022/05/21 07:32:50;;;;;;;4.30;0.68;;;22.20;62.80;;;;;;10098971;29;20029;-88
2022/05/21 07:37:51;;;;;;;9.13;0.60;;;21.90;62.20;;;;;;10084011;29;20049;-89
2022/05/21 07:42:52;;;;;;;6.75;0.68;;;21.60;62.20;;;;;;10090921;29;20048;-84
2022/05/21 07:47:53;;;;;;;11.32;0.90;;;21.10;62.30;;;;;;10091738;29;20390;-82
2022/05/21 07:52:54;;;;;;;5.53;0.68;;;20.80;63.90;;;;;;10091333;29;20044;-86
2022/05/21 07:57:54;;;;;;;4.75;0.98;;;20.60;63.40;;;;;;10112699;29;20041;-84
2022/05/21 08:02:55;;;;;;;4.75;0.60;;;20.70;64.50;;;;;;10081958;29;20044;-86
2022/05/21 08:07:56;;;;;;;2.15;0.50;;;20.60;64.60;;;;;;10074812;29;20382;-86
2022/05/21 08:12:57;;;;;;;2.83;0.70;;;20.40;64.20;;;;;;10099257;29;20033;-85
2022/05/21 08:18:00;;;;;;;7.35;0.80;;;20.20;63.90;;;;;;10095047;29;20446;-84
2022/05/21 08:28:21;;;;;;;3.83;0.80;;;20.70;65.00;;;;;;10081514;29;20071;-85
2022/05/21 08:33:22;;;;;;;12.02;0.93;;;20.70;62.40;;;;;;10079720;29;20032;-85
2022/05/21 08:38:22;;;;;;;4.13;1.00;;;20.70;61.90;;;;;;10072872;29;20059;-86
2022/05/21 08:43:44;;;;;;;8.20;0.88;;;20.60;62.70;;;;;;10087536;29;20375;-89
2022/05/21 08:49:08;;;;;;;2.65;0.70;;;20.70;63.50;;;;;;10067433;29;20032;-86
2022/05/21 08:54:12;;;;;;;3.83;1.08;;;20.80;63.10;;;;;;10091326;29;20040;-87
2022/05/21 08:59:17;;;;;;;2.58;0.70;;;20.80;61.70;;;;;;10083726;29;20032;-88
2022/05/21 09:04:26;;;;;;;11.02;1.00;;;20.80;61.60;;;;;;10101306;29;20044;-88
2022/05/21 09:09:45;;;;;;;5.22;1.15;;;21.00;62.20;;;;;;10073264;29;20524;-88
2022/05/21 09:14:52;;;;;;;2.50;0.60;;;21.20;61.70;;;;;;10089113;29;20025;-86
2022/05/21 09:19:57;;;;;;;1.60;0.75;;;21.40;59.30;;;;;;10087063;29;20036;-89
2022/05/21 09:24:59;;;;;;;9.10;1.35;;;21.50;61.20;;;;;;10064118;29;20065;-87
2022/05/21 09:30:21;;;;;;;6.20;0.98;;;21.70;60.00;;;;;;10072636;29;20032;-88
2022/05/21 09:35:27;;;;;;;2.65;0.85;;;21.70;58.70;;;;;;10058548;29;20063;-88
2022/05/21 09:40:39;;;;;;;2.67;0.77;;;21.60;58.90;;;;;;10083436;29;20130;-89
2022/05/21 09:45:47;;;;;;;2.75;0.90;;;21.60;60.20;;;;;;10067538;29;20493;-88
2022/05/21 09:50:59;;;;;;;7.60;1.05;;;21.70;59.80;;;;;;10080059;29;20040;-84
2022/05/21 09:56:01;;;;;;;3.13;0.90;;;21.80;59.70;;;;;;10089287;29;20464;-84
2022/05/21 10:01:03;;;;;;;5.80;0.80;;;21.80;60.10;;;;;;10072542;29;20044;-83
2022/05/21 10:06:22;;;;;;;1.80;0.90;;;21.70;60.10;;;;;;10088698;29;20109;-85
2022/05/21 10:11:55;;;;;;;3.67;0.70;;;21.80;61.40;;;;;;10082693;29;20040;-86
2022/05/21 10:16:59;;;;;;;1.30;0.80;;;21.80;60.60;;;;;;10064634;29;20108;-85
2022/05/21 10:22:29;;;;;;;4.47;1.02;;;21.60;60.50;;;;;;10089493;29;20037;-85
2022/05/21 10:27:32;;;;;;;4.28;0.90;;;22.30;60.60;;;;;;10085281;29;20045;-83
2022/05/21 10:32:52;;;;;;;7.75;1.65;;;22.30;59.10;;;;;;10077534;29;20409;-82
2022/05/21 10:37:58;;;;;;;3.95;1.00;;;22.40;60.10;;;;;;10069583;29;20049;-85
2022/05/21 10:43:09;;;;;;;3.40;0.80;;;22.40;59.30;;;;;;10087322;29;20084;-83
2022/05/21 10:48:13;;;;;;;4.40;0.82;;;22.40;58.50;;;;;;10076562;29;20052;-84
2022/05/21 10:53:34;;;;;;;5.53;1.17;;;22.00;60.70;;;;;;10085917;29;20389;-84
2022/05/21 10:58:54;;;;;;;1.73;1.00;;;22.20;59.10;;;;;;10091960;29;20043;-84
2022/05/21 11:03:54;;;;;;;2.90;0.77;;;22.60;59.80;;;;;;10085989;29;20096;-83
2022/05/21 11:08:58;;;;;;;4.43;1.00;;;22.70;59.70;;;;;;10079655;29;20116;-83
2022/05/21 11:14:04;;;;;;;4.30;1.20;;;22.80;60.10;;;;;;10077333;29;20029;-85
2022/05/21 11:19:11;;;;;;;2.40;1.02;;;22.80;59.20;;;;;;10076150;29;20040;-85
2022/05/21 11:24:26;;;;;;;2.30;1.00;;;22.70;57.20;;;;;;10074046;29;20047;-85
2022/05/21 11:29:41;;;;;;;2.28;0.60;;;22.70;58.60;;;;;;10082584;29;20041;-84
2022/05/21 11:41:31;;;;;;;5.70;1.02;;;23.20;55.30;;;;;;10086886;29;20076;-84
2022/05/21 11:46:36;;;;;;;2.13;0.80;;;23.10;56.20;;;;;;10086858;29;20522;-83
2022/05/21 11:51:37;;;;;;;7.40;1.20;;;22.80;54.20;;;;;;10104896;29;20079;-83
2022/05/21 11:57:32;;;;;;;2.33;1.05;;;22.60;55.40;;;;;;10098455;29;20032;-83
2022/05/21 12:02:37;;;;;;;3.03;0.82;;;22.80;55.90;;;;;;10048747;29;20063;-83
2022/05/21 12:07:41;;;;;;;4.15;1.00;;;22.90;55.40;;;;;;10092465;29;20033;-85
2022/05/21 12:13:12;;;;;;;3.90;0.98;;;22.60;55.10;;;;;;10102260;29;20033;-84
2022/05/21 12:18:34;;;;;;;1.73;0.88;;;23.20;56.80;;;;;;10070551;29;20036;-85
2022/05/21 12:23:35;;;;;;;3.60;0.70;;;23.50;55.70;;;;;;10074607;29;20045;-83
2022/05/21 12:28:51;;;;;;;3.70;0.68;;;23.50;53.90;;;;;;10091248;29;20040;-83
2022/05/21 12:33:55;;;;;;;4.55;0.88;;;23.20;55.10;;;;;;10062442;29;20524;-82
2022/05/21 12:39:00;;;;;;;1.83;0.80;;;23.60;53.70;;;;;;10104207;29;20041;-83
2022/05/21 12:44:00;;;;;;;1.92;0.73;;;23.30;53.60;;;;;;10068480;29;20115;-81
2022/05/21 12:49:10;;;;;;;3.70;1.08;;;23.10;55.60;;;;;;10084144;29;20031;-83
2022/05/21 12:54:23;;;;;;;3.35;0.75;;;23.20;55.20;;;;;;10087550;29;20033;-85
2022/05/21 12:59:29;;;;;;;1.20;0.75;;;23.00;54.60;;;;;;10085677;29;20610;-86
2022/05/21 13:04:31;;;;;;;1.17;0.80;;;22.50;54.90;;;;;;10065167;29;20041;-83
2022/05/21 13:09:35;;;;;;;1.73;0.75;;;22.30;55.40;;;;;;10081577;29;20031;-82
2022/05/21 13:14:38;;;;;;;5.95;0.95;;;21.80;55.40;;;;;;10075142;29;21228;-86
2022/05/21 13:19:56;;;;;;;3.75;0.95;;;21.70;56.00;;;;;;10087338;29;20421;-87
2022/05/21 13:25:04;;;;;;;1.58;0.65;;;22.30;57.00;;;;;;10073274;29;20064;-84
2022/05/21 13:30:11;;;;;;;1.55;0.73;;;22.60;55.40;;;;;;10096256;29;20028;-83
2022/05/21 13:35:38;;;;;;;1.50;0.60;;;22.60;55.80;;;;;;10089202;29;20473;-86
2022/05/21 13:40:55;;;;;;;1.95;1.10;;;22.70;54.50;;;;;;10099004;29;20465;-83
2022/05/21 13:45:59;;;;;;;2.38;0.57;;;22.80;55.40;;;;;;10068033;29;20025;-85
2022/05/21 13:51:02;;;;;;;3.93;0.73;;;22.60;54.90;;;;;;10088126;29;20124;-84
2022/05/21 13:56:24;;;;;;;4.75;0.70;;;22.10;56.80;;;;;;10096487;29;20065;-87
2022/05/21 14:01:29;;;;;;;3.75;0.70;;;21.80;56.50;;;;;;10081491;29;20052;-86
2022/05/21 14:06:31;;;;;;;1.70;0.68;;;21.60;58.20;;;;;;10079613;29;20044;-85
2022/05/21 14:11:33;;;;;;;2.60;0.70;;;21.40;56.90;;;;;;10096587;29;20424;-83
2022/05/21 14:16:40;;;;;;;3.35;0.70;;;21.00;58.20;;;;;;10107532;29;20168;-81
2022/05/21 14:22:10;;;;;;;6.85;1.42;;;21.30;58.70;;;;;;10114166;29;20041;-83
2022/05/21 14:27:18;;;;;;;2.83;1.02;;;21.60;57.90;;;;;;10076228;29;20033;-83
2022/05/21 14:32:25;;;;;;;1.98;0.70;;;21.30;57.10;;;;;;10083054;29;20031;-83
2022/05/21 14:37:30;;;;;;;1.48;0.60;;;21.00;57.40;;;;;;10090498;29;20832;-86
2022/05/21 14:42:31;;;;;;;9.43;1.42;;;20.90;58.10;;;;;;10095991;29;20116;-82
2022/05/21 14:52:55;;;;;;;1.95;0.98;;;21.20;58.50;;;;;;10086688;29;20386;-85
2022/05/21 14:57:57;;;;;;;3.33;0.90;;;21.30;57.30;;;;;;10074102;29;20037;-86
2022/05/21 15:02:57;;;;;;;3.45;0.88;;;20.70;57.70;;;;;;10077886;29;20056;-84
2022/05/21 15:08:00;;;;;;;5.55;0.95;;;20.30;58.20;;;;;;10078927;29;20032;-84
2022/05/21 15:13:01;;;;;;;2.90;1.08;;;20.40;58.40;;;;;;10082753;29;20522;-85
2022/05/21 15:18:02;;;;;;;1.35;0.80;;;20.30;58.50;;;;;;10088735;29;20065;-84
2022/05/21 15:23:04;;;;;;;4.22;0.85;;;20.10;57.70;;;;;;10098917;29;20044;-84
2022/05/21 15:28:05;;;;;;;2.42;1.00;;;19.90;58.90;;;;;;10074921;29;20033;-84
2022/05/21 15:33:06;;;;;;;5.75;0.70;;;19.90;57.60;;;;;;10086582;29;20021;-85
2022/05/21 15:38:07;;;;;;;2.20;0.82;;;19.80;55.50;;;;;;10102771;29;20376;-86
2022/05/21 15:43:14;;;;;;;2.83;0.80;;;19.60;56.30;;;;;;10076254;29;20041;-84
2022/05/21 15:48:15;;;;;;;4.10;0.77;;;19.60;56.90;;;;;;10091079;29;20115;-84
2022/05/21 15:53:17;;;;;;;1.15;0.77;;;19.70;55.80;;;;;;10101997;29;20064;-83
2022/05/21 15:58:17;;;;;;;4.82;1.58;;;19.70;56.10;;;;;;10092276;29;20033;-84
2022/05/21 16:03:18;;;;;;;2.70;0.80;;;19.70;56.90;;;;;;10074635;29;20041;-84
2022/05/21 16:08:19;;;;;;;0.77;0.60;;;19.60;56.70;;;;;;10092970;29;20097;-87
2022/05/21 16:13:20;;;;;;;0.73;0.60;;;19.20;57.90;;;;;;10107654;29;20445;-86
2022/05/21 16:18:21;;;;;;;3.35;0.70;;;19.00;58.50;;;;;;10109395;29;20039;-84
2022/05/21 16:23:21;;;;;;;3.40;0.75;;;19.10;58.00;;;;;;10095480;29;20055;-83
2022/05/21 16:28:23;;;;;;;1.88;1.05;;;19.00;59.00;;;;;;10106017;29;20181;-86
2022/05/21 16:33:23;;;;;;;3.17;0.77;;;19.10;57.20;;;;;;10070103;29;20025;-84
2022/05/21 16:38:25;;;;;;;5.70;1.13;;;19.10;56.00;;;;;;10089671;29;20056;-85
2022/05/21 16:43:25;;;;;;;7.88;1.23;;;18.90;57.20;;;;;;10104108;29;20060;-84
2022/05/21 16:48:27;;;;;;;1.80;0.80;;;18.90;57.60;;;;;;10078943;29;20101;-84
2022/05/21 16:53:28;;;;;;;4.20;1.27;;;18.70;57.80;;;;;;10082938;29;20044;-86
2022/05/21 16:58:28;;;;;;;5.57;1.25;;;18.40;58.90;;;;;;10100170;29;20029;-82
2022/05/21 17:03:29;;;;;;;3.17;0.80;;;18.30;59.40;;;;;;10073763;29;20055;-84
2022/05/21 17:08:30;;;;;;;4.38;1.08;;;18.20;59.20;;;;;;10070274;29;20040;-84
2022/05/21 17:13:30;;;;;;;1.88;1.20;;;18.10;59.70;;;;;;10071320;29;20033;-86
2022/05/21 17:18:31;;;;;;;2.47;1.50;;;18.10;59.70;;;;;;10073288;29;20434;-84
2022/05/21 17:23:32;;;;;;;3.75;1.40;;;18.10;60.00;;;;;;10089767;29;20041;-85
2022/05/21 17:33:52;;;;;;;4.32;1.55;;;18.00;60.40;;;;;;10086004;29;20040;-84
2022/05/21 17:38:53;;;;;;;2.35;1.13;;;17.90;60.40;;;;;;10078072;29;20491;-85
2022/05/21 17:43:53;;;;;;;3.03;1.40;;;17.90;60.50;;;;;;10080059;29;20040;-85
2022/05/21 17:48:55;;;;;;;1.40;1.00;;;17.70;60.60;;;;;;10101105;29;20493;-84
2022/05/21 17:53:56;;;;;;;2.80;1.10;;;17.70;60.80;;;;;;10087622;29;20033;-85
2022/05/21 17:58:57;;;;;;;2.55;1.20;;;17.60;61.40;;;;;;10071357;29;20493;-83
2022/05/21 18:03:58;;;;;;;1.92;1.10;;;17.50;62.20;;;;;;10098157;29;20124;-85
2022/05/21 18:08:59;;;;;;;4.68;1.13;;;17.40;63.10;;;;;;10061307;29;20551;-86
2022/05/21 18:13:59;;;;;;;2.20;1.00;;;17.40;62.40;;;;;;10079054;29;20040;-83
2022/05/21 18:24:21;;;;;;;2.65;0.95;;;17.40;63.10;;;;;;10084711;29;20045;-86
2022/05/21 18:29:23;;;;;;;4.45;1.20;;;17.40;63.30;;;;;;10083548;29;20036;-86
2022/05/21 18:34:25;;;;;;;1.48;0.90;;;17.30;63.70;;;;;;10080658;29;20085;-85
2022/05/21 18:39:27;;;;;;;1.77;1.00;;;17.20;63.50;;;;;;10072123;29;20083;-88
2022/05/21 18:44:28;;;;;;;4.15;1.02;;;17.10;63.70;;;;;;10089543;29;20425;-87
2022/05/21 18:49:29;;;;;;;1.17;1.08;;;17.00;64.20;;;;;;10074868;29;20036;-89
2022/05/21 18:54:29;;;;;;;1.98;1.05;;;16.80;63.90;;;;;;10065787;29;20175;-86
2022/05/21 18:59:30;;;;;;;2.13;1.13;;;16.80;64.40;;;;;;10073872;29;20041;-86
2022/05/21 19:04:32;;;;;;;4.32;1.17;;;16.80;64.70;;;;;;10076163;29;20037;-89
2022/05/21 19:09:33;;;;;;;3.20;1.30;;;16.80;64.80;;;;;;10080257;29;20088;-85
2022/05/21 19:14:34;;;;;;;3.05;1.45;;;16.80;65.00;;;;;;10089627;29;20025;-84
2022/05/21 19:19:35;;;;;;;1.75;1.08;;;16.70;65.30;;;;;;10091359;29;20041;-86
2022/05/21 19:24:38;;;;;;;3.67;1.55;;;16.50;65.80;;;;;;10074535;29;20041;-85
2022/05/21 19:29:40;;;;;;;4.45;1.67;;;16.40;66.20;;;;;;10052617;29;20044;-85
2022/05/21 19:34:42;;;;;;;3.10;1.35;;;16.20;67.00;;;;;;10041598;29;20144;-85
2022/05/21 19:45:02;;;;;;;2.80;1.75;;;15.90;67.90;;;;;;10055453;29;20425;-84
2022/05/21 19:50:04;;;;;;;5.97;2.50;;;15.80;68.50;;;;;;10070054;29;20025;-85
2022/05/21 19:55:04;;;;;;;5.15;2.72;;;15.70;69.30;;;;;;10126844;29;20037;-85
2022/05/21 20:00:06;;;;;;;7.88;3.95;;;15.60;70.10;;;;;;10127752;29;20040;-84
2022/05/21 20:05:08;;;;;;;6.40;3.83;;;15.50;70.60;;;;;;10052993;29;20041;-87
2022/05/21 20:10:09;;;;;;;8.40;4.38;;;15.30;71.70;;;;;;10036993;29;20036;-84
2022/05/21 20:15:11;;;;;;;7.93;3.80;;;15.00;72.90;;;;;;10090950;29;20044;-84
2022/05/21 20:20:12;;;;;;;10.07;4.55;;;14.50;75.10;;;;;;10091075;29;20093;-85
2022/05/21 20:25:13;;;;;;;11.20;5.05;;;14.10;77.00;;;;;;10126560;29;20039;-84
2022/05/21 20:30:16;;;;;;;8.95;4.68;;;13.60;78.70;;;;;;10096867;29;20032;-85
2022/05/21 20:35:17;;;;;;;6.93;3.42;;;13.30;80.20;;;;;;10088807;29;20097;-84
2022/05/21 20:40:18;;;;;;;7.57;3.78;;;12.90;80.90;;;;;;10073970;29;20093;-85
2022/05/21 20:45:18;;;;;;;8.38;3.58;;;12.90;81.50;;;;;;10082943;29;20036;-84
2022/05/21 20:50:20;;;;;;;5.13;2.97;;;12.90;81.40;;;;;;10088910;29;20049;-85
2022/05/21 20:55:21;;;;;;;7.88;3.00;;;13.10;81.00;;;;;;10092623;29;20037;-83
2022/05/21 21:00:22;;;;;;;3.67;2.50;;;13.30;80.30;;;;;;10072423;29;20099;-84
2022/05/21 21:05:23;;;;;;;6.22;2.50;;;13.60;80.50;;;;;;10081761;29;20103;-85
2022/05/21 21:10:24;;;;;;;5.55;2.15;;;13.90;80.10;;;;;;10041178;29;20029;-84
2022/05/21 21:15:25;;;;;;;5.03;1.90;;;14.20;79.30;;;;;;10101307;29;20040;-83
2022/05/21 21:20:25;;;;;;;4.00;1.80;;;14.50;78.40;;;;;;10072340;29;20064;-84
2022/05/21 21:25:26;;;;;;;2.03;1.60;;;14.80;77.50;;;;;;10112581;29;20097;-83
2022/05/21 21:30:27;;;;;;;3.85;1.80;;;14.90;77.10;;;;;;10065582;29;20028;-84
2022/05/21 21:35:28;;;;;;;3.40;1.67;;;14.90;77.10;;;;;;10093178;29;20040;-85
2022/05/21 21:40:28;;;;;;;3.17;1.60;;;14.80;77.20;;;;;;10104350;29;20442;-85
2022/05/21 21:45:30;;;;;;;3.67;1.85;;;14.70;77.40;;;;;;10088907;29;20099;-85
2022/05/21 21:50:31;;;;;;;3.63;1.60;;;14.70;77.70;;;;;;10088365;29;20370;-85
2022/05/21 21:55:32;;;;;;;3.08;1.50;;;14.60;78.10;;;;;;10088939;29;20041;-83
2022/05/21 22:06:14;;;;;;;4.53;2.10;;;14.40;78.70;;;;;;10062524;29;20497;-84
2022/05/21 22:11:15;;;;;;;4.40;1.58;;;14.30;79.00;;;;;;10109342;29;20032;-85
2022/05/21 22:16:16;;;;;;;1.95;1.35;;;14.10;79.50;;;;;;10111720;29;20505;-83
2022/05/21 22:21:17;;;;;;;3.92;1.83;;;14.00;79.90;;;;;;10083656;29;20053;-84
2022/05/21 22:26:18;;;;;;;4.45;1.35;;;13.90;80.50;;;;;;10084939;29;20069;-83
2022/05/21 22:31:19;;;;;;;2.58;1.80;;;13.80;81.30;;;;;;10075686;29;20040;-83
2022/05/21 22:36:19;;;;;;;2.03;1.75;;;13.70;81.70;;;;;;10104045;29;20885;-84
2022/05/21 22:41:20;;;;;;;3.85;1.65;;;13.70;82.10;;;;;;10121864;29;20131;-83
2022/05/21 22:46:22;;;;;;;2.15;1.80;;;13.80;82.50;;;;;;10090490;29;20049;-83
2022/05/21 22:51:25;;;;;;;3.55;1.92;;;13.90;82.70;;;;;;10124251;29;20033;-84
2022/05/21 22:56:26;;;;;;;3.83;2.00;;;13.90;83.30;;;;;;10088145;29;20097;-83
2022/05/21 23:01:27;;;;;;;6.32;1.98;;;13.80;83.30;;;;;;10070098;29;20144;-84
2022/05/21 23:06:28;;;;;;;2.78;1.70;;;13.70;83.80;;;;;;10087243;29;20055;-84
2022/05/21 23:11:28;;;;;;;3.92;1.90;;;13.70;84.40;;;;;;10105237;29;20177;-83
2022/05/21 23:27:07;;;;;;;4.22;2.60;;;13.40;86.70;;;;;;10087292;29;20524;-84
2022/05/21 23:32:08;;;;;;;3.00;2.17;;;13.40;87.80;;;;;;10126189;29;20119;-84
2022/05/21 23:37:11;;;;;;;4.15;1.83;;;13.40;87.80;;;;;;10124527;29;20052;-84
2022/05/21 23:42:12;;;;;;;5.95;2.45;;;13.50;88.50;;;;;;10092779;29;20135;-85
2022/05/21 23:47:12;;;;;;;7.18;2.90;;;13.50;90.50;;;;;;10092215;29;20043;-85
2022/05/21 23:52:15;;;;;;;4.38;2.45;;;13.40;92.70;;;;;;10110643;29;20041;-85
2022/05/21 23:57:16;;;;;;;6.20;2.30;;;13.20;95.10;;;;;;10090050;29;20037;-84
